Terminal Aerodrome Forecast
Issued by NWS

Home | Current Version | Previous Version | Text Only | Print | Product List | Glossary On
Versions: 1 2 3 4 5 6 7 8 9 10 11 12 13 14 15 16 17 18 19
000
FTUS43 KDLH 281100
TAFHIB
TAF
KHIB 281123Z 2812/2912 33011KT P6SM -SN SCT015 OVC025
      TEMPO 2812/2815 OVC015
     FM281500 33012KT P6SM SCT015
     FM282000 33010KT P6SM SKC=

USA.gov is the U.S. government's official web portal to all federal, state and local government web resources and services.